createdAt,value
2018-12-02T00:01:09.782Z,7.30
2018-12-02T00:03:38.432Z,7.40
2018-12-02T00:06:07.092Z,7.40
2018-12-02T00:08:41.584Z,7.40
2018-12-02T00:11:10.167Z,7.30
2018-12-02T00:13:38.828Z,7.30
2018-12-02T00:16:07.495Z,7.30
2018-12-02T00:18:36.257Z,7.30
2018-12-02T00:21:04.903Z,7.30
2018-12-02T00:23:33.545Z,7.30
2018-12-02T00:26:02.346Z,7.30
2018-12-02T00:28:30.992Z,7.30
2018-12-02T00:30:59.688Z,7.30
2018-12-02T00:33:28.340Z,7.30
2018-12-02T00:35:56.996Z,7.40
2018-12-02T00:38:25.671Z,7.40
2018-12-02T00:40:54.645Z,7.40
2018-12-02T00:43:23.267Z,7.40
2018-12-02T00:45:51.951Z,7.40
2018-12-02T00:48:20.542Z,7.40
2018-12-02T00:50:49.175Z,7.30
2018-12-02T00:53:17.876Z,7.40
2018-12-02T00:55:46.624Z,7.40
2018-12-02T00:58:15.385Z,7.30
2018-12-02T01:00:44.165Z,7.30
2018-12-02T01:03:12.767Z,7.20
2018-12-02T01:05:41.447Z,7.10
2018-12-02T01:08:10.119Z,7.10
2018-12-02T01:10:38.795Z,7.10
2018-12-02T01:13:09.388Z,7.10
2018-12-02T01:15:39.153Z,7.10
2018-12-02T01:18:08.171Z,7.10
2018-12-02T01:20:37.843Z,7.20
2018-12-02T01:23:07.375Z,7.20
2018-12-02T01:25:36.931Z,7.20
2018-12-02T01:28:05.862Z,7.10
2018-12-02T01:30:34.452Z,7.10
2018-12-02T01:33:03.090Z,7.10
2018-12-02T01:35:31.699Z,7.10
2018-12-02T01:38:00.329Z,7.00
2018-12-02T01:40:29.044Z,7.00
2018-12-02T01:42:57.754Z,7.10
2018-12-02T01:45:26.614Z,7.10
2018-12-02T01:47:56.063Z,7.10
2018-12-02T01:50:25.749Z,7.10
2018-12-02T01:52:55.275Z,7.20
2018-12-02T01:55:23.948Z,7.20
2018-12-02T01:57:52.763Z,7.20
2018-12-02T02:00:23.207Z,7.20
2018-12-02T02:02:52.397Z,7.20
2018-12-02T02:05:21.834Z,7.20
2018-12-02T02:07:50.511Z,7.20
2018-12-02T02:10:22.984Z,7.20
2018-12-02T02:12:51.972Z,7.20
2018-12-02T02:15:20.753Z,7.20
2018-12-02T02:17:49.476Z,7.20
2018-12-02T02:20:19.102Z,7.20
2018-12-02T02:22:47.953Z,7.20
2018-12-02T02:25:17.458Z,7.10
2018-12-02T02:27:47.170Z,7.10
2018-12-02T02:30:18.896Z,7.10
2018-12-02T02:32:47.886Z,7.10
2018-12-02T02:35:17.618Z,7.10
2018-12-02T02:37:46.319Z,7.10
2018-12-02T02:40:20.923Z,7.00
2018-12-02T02:42:49.638Z,7.10
2018-12-02T02:45:18.406Z,7.10
2018-12-02T02:47:47.141Z,7.10
2018-12-02T02:50:20.664Z,7.10
2018-12-02T02:52:55.374Z,7.10
2018-12-02T02:55:24.063Z,7.10
2018-12-02T02:57:52.964Z,7.10
2018-12-02T03:00:22.671Z,7.10
2018-12-02T03:02:51.352Z,7.10
2018-12-02T03:05:20.113Z,7.10
2018-12-02T03:07:48.776Z,7.00
2018-12-02T03:10:20.473Z,7.00
2018-12-02T03:12:49.994Z,7.00
2018-12-02T03:15:19.491Z,7.00
2018-12-02T03:17:48.235Z,7.10
2018-12-02T03:20:17.822Z,7.10
2018-12-02T03:22:47.645Z,7.10
2018-12-02T03:25:17.418Z,7.10
2018-12-02T03:27:46.068Z,7.10
2018-12-02T03:30:19.518Z,7.10
2018-12-02T03:32:48.292Z,7.10
2018-12-02T03:35:18.128Z,7.10
2018-12-02T03:37:46.777Z,7.10
2018-12-02T03:40:20.312Z,7.10
2018-12-02T03:42:49.784Z,7.10
2018-12-02T03:45:19.433Z,7.10
2018-12-02T03:47:48.141Z,7.10
2018-12-02T03:50:18.719Z,7.00
2018-12-02T03:52:47.422Z,7.00
2018-12-02T03:55:16.091Z,7.00
2018-12-02T03:57:44.859Z,7.00
2018-12-02T04:00:17.521Z,7.00
2018-12-02T04:02:46.135Z,7.10
2018-12-02T04:05:15.646Z,7.00
2018-12-02T04:07:44.294Z,7.00
2018-12-02T04:10:16.579Z,7.10
2018-12-02T04:12:46.116Z,7.00
2018-12-02T04:15:16.932Z,7.00
2018-12-02T04:17:46.432Z,7.00
2018-12-02T04:20:18.751Z,7.00
2018-12-02T04:22:49.195Z,7.00
2018-12-02T04:25:18.945Z,7.00
2018-12-02T04:27:47.634Z,7.10
2018-12-02T04:30:17.292Z,7.00
2018-12-02T04:32:46.673Z,7.00
2018-12-02T04:35:17.351Z,7.00
2018-12-02T04:37:45.938Z,7.00
2018-12-02T04:40:15.091Z,7.00
2018-12-02T04:42:43.769Z,7.00
2018-12-02T04:45:15.075Z,7.10
2018-12-02T04:47:44.387Z,7.10
2018-12-02T04:50:15.427Z,7.10
2018-12-02T04:52:44.063Z,7.10
2018-12-02T04:55:12.922Z,7.10
2018-12-02T04:57:41.554Z,7.10
2018-12-02T05:00:15.248Z,7.10
2018-12-02T05:02:44.671Z,7.10
2018-12-02T05:05:18.451Z,7.10
2018-12-02T05:07:47.064Z,7.10
2018-12-02T05:10:17.650Z,7.10
2018-12-02T05:12:46.807Z,7.10
2018-12-02T05:15:16.406Z,7.10
2018-12-02T05:17:45.062Z,7.10
2018-12-02T05:20:16.587Z,7.10
2018-12-02T05:22:45.300Z,7.10
2018-12-02T05:25:20.569Z,7.00
2018-12-02T05:27:49.204Z,7.00
2018-12-02T05:30:19.765Z,7.10
2018-12-02T05:32:52.519Z,7.10
2018-12-02T05:35:21.291Z,7.00
2018-12-02T05:37:49.968Z,7.00
2018-12-02T05:40:19.815Z,7.00
2018-12-02T05:42:48.681Z,7.00
2018-12-02T05:45:18.331Z,7.00
2018-12-02T05:47:47.012Z,6.90
2018-12-02T05:50:22.788Z,6.90
2018-12-02T05:52:56.423Z,6.90
2018-12-02T05:55:27.558Z,6.90
2018-12-02T05:57:56.470Z,6.80
2018-12-02T06:00:25.125Z,6.80
2018-12-02T06:02:53.821Z,6.80
2018-12-02T06:05:22.481Z,6.80
2018-12-02T06:07:57.547Z,6.80
2018-12-02T06:10:26.261Z,6.80
2018-12-02T06:12:54.919Z,6.80
2018-12-02T06:15:23.582Z,6.80
2018-12-02T06:17:52.478Z,6.80
2018-12-02T06:20:22.082Z,6.90
2018-12-02T06:22:51.690Z,6.90
2018-12-02T06:25:20.645Z,6.90
2018-12-02T06:27:49.347Z,7.00
2018-12-02T06:30:20.630Z,7.00
2018-12-02T06:32:52.310Z,7.00
2018-12-02T06:35:20.946Z,7.00
2018-12-02T06:37:50.129Z,7.00
2018-12-02T06:40:21.920Z,6.90
2018-12-02T06:42:51.259Z,7.00
2018-12-02T06:45:20.612Z,7.00
2018-12-02T06:47:49.275Z,7.00
2018-12-02T06:50:28.056Z,7.00
2018-12-02T06:52:57.436Z,7.10
2018-12-02T06:55:36.562Z,7.10
2018-12-02T06:58:18.327Z,7.10
2018-12-02T07:00:56.345Z,7.10
2018-12-02T07:03:35.459Z,7.10
2018-12-02T07:06:04.239Z,7.10
2018-12-02T07:08:33.091Z,7.20
2018-12-02T07:11:01.706Z,7.20
2018-12-02T07:13:30.383Z,7.20
2018-12-02T07:15:59.311Z,7.20
2018-12-02T07:18:29.071Z,7.30
2018-12-02T07:21:05.214Z,7.50
2018-12-02T07:23:33.868Z,7.60
2018-12-02T07:26:02.531Z,7.70
2018-12-02T07:28:32.490Z,7.90
2018-12-02T07:31:01.222Z,8.00
2018-12-02T07:33:29.888Z,8.20
2018-12-02T07:35:58.571Z,8.50
2018-12-02T07:39:36.889Z,8.70
2018-12-02T07:42:06.895Z,8.80
2018-12-02T07:44:35.580Z,9.00
2018-12-02T07:47:04.333Z,9.10
2018-12-02T07:49:33.006Z,9.20
2018-12-02T07:52:01.763Z,9.30
2018-12-02T07:54:30.532Z,9.50
2018-12-02T07:56:59.223Z,9.50
2018-12-02T07:59:28.135Z,9.60
2018-12-02T08:01:56.829Z,9.70
2018-12-02T08:04:25.538Z,9.80
2018-12-02T08:06:54.223Z,9.90
2018-12-02T08:09:22.982Z,10.10
2018-12-02T08:11:51.690Z,10.20
2018-12-02T08:14:20.400Z,10.30
2018-12-02T08:16:49.047Z,10.40
2018-12-02T08:19:17.714Z,10.50
2018-12-02T08:21:46.351Z,10.50
2018-12-02T08:24:15.001Z,10.60
2018-12-02T08:26:43.779Z,10.60
2018-12-02T08:29:12.495Z,10.60
2018-12-02T08:31:41.360Z,10.70
2018-12-02T08:34:10.028Z,10.80
2018-12-02T08:36:38.693Z,10.80
2018-12-02T08:39:13.924Z,10.90
2018-12-02T08:41:42.670Z,10.90
2018-12-02T08:44:11.315Z,10.90
2018-12-02T08:46:40.004Z,10.90
2018-12-02T08:49:08.682Z,10.90
2018-12-02T08:51:37.373Z,10.90
2018-12-02T08:54:06.048Z,11.00
2018-12-02T08:56:34.769Z,11.00
2018-12-02T08:59:04.614Z,11.00
2018-12-02T09:01:33.403Z,11.10
2018-12-02T09:04:02.060Z,11.10
2018-12-02T09:06:30.706Z,11.10
2018-12-02T09:08:59.567Z,11.10
2018-12-02T09:11:28.223Z,11.10
2018-12-02T09:13:59.283Z,11.20
2018-12-02T09:16:28.966Z,11.20
2018-12-02T09:18:57.555Z,11.30
2018-12-02T09:21:26.220Z,11.30
2018-12-02T09:23:54.870Z,11.30
2018-12-02T09:26:23.573Z,11.40
2018-12-02T09:28:52.303Z,11.40
2018-12-02T09:31:21.028Z,11.40
2018-12-02T09:33:49.762Z,11.40
2018-12-02T09:36:19.808Z,11.50
2018-12-02T09:38:48.655Z,11.50
2018-12-02T09:41:17.319Z,11.50
2018-12-02T09:43:46.193Z,11.50
2018-12-02T09:46:14.772Z,11.40
2018-12-02T09:48:43.532Z,11.30
2018-12-02T09:51:12.865Z,11.30
2018-12-02T09:53:41.613Z,11.30
2018-12-02T09:56:10.330Z,11.30
2018-12-02T09:58:39.159Z,11.30
2018-12-02T10:01:07.798Z,11.30
2018-12-02T10:03:36.592Z,11.30
2018-12-02T10:06:05.310Z,11.20
2018-12-02T10:08:34.018Z,11.30
2018-12-02T10:11:02.763Z,11.30
2018-12-02T10:13:31.406Z,11.30
2018-12-02T10:16:00.039Z,11.30
2018-12-02T10:18:28.755Z,11.30
2018-12-02T10:20:57.523Z,11.40
2018-12-02T10:23:26.282Z,11.50
2018-12-02T10:25:54.971Z,11.50
2018-12-02T10:28:23.709Z,11.60
2018-12-02T10:30:54.874Z,11.70
2018-12-02T10:33:23.840Z,11.80
2018-12-02T10:35:52.497Z,11.90
2018-12-02T10:38:27.008Z,12.00
2018-12-02T10:40:56.475Z,12.10
2018-12-02T10:43:25.148Z,12.30
2018-12-02T10:45:53.794Z,12.40
2018-12-02T10:48:22.481Z,12.50
2018-12-02T10:50:57.652Z,12.60
2018-12-02T10:53:26.386Z,12.60
2018-12-02T10:55:57.470Z,12.60
2018-12-02T10:58:28.247Z,12.60
2018-12-02T11:01:04.651Z,12.60
2018-12-02T11:03:33.963Z,12.60
2018-12-02T11:06:02.884Z,12.70
2018-12-02T11:08:32.404Z,12.70
2018-12-02T11:11:01.358Z,12.80
2018-12-02T11:13:30.175Z,12.90
2018-12-02T11:15:59.160Z,13.00
2018-12-02T11:18:28.008Z,13.20
2018-12-02T11:20:56.564Z,13.30
2018-12-02T11:23:25.387Z,13.30
2018-12-02T11:25:54.536Z,13.40
2018-12-02T11:28:23.220Z,13.30
2018-12-02T11:30:51.959Z,13.20
2018-12-02T11:33:20.792Z,13.10
2018-12-02T11:35:49.417Z,13.20
2018-12-02T11:38:18.256Z,13.30
2018-12-02T11:40:46.897Z,13.40
2018-12-02T11:43:15.557Z,13.30
2018-12-02T11:45:44.167Z,13.30
2018-12-02T11:48:12.795Z,13.30
2018-12-02T11:50:41.416Z,13.50
2018-12-02T11:53:10.276Z,13.40
2018-12-02T11:55:38.960Z,13.30
2018-12-02T11:58:07.678Z,13.30
2018-12-02T12:00:38.062Z,13.30
2018-12-02T12:03:07.160Z,13.40
2018-12-02T12:05:37.034Z,13.40
2018-12-02T12:08:08.575Z,13.50
2018-12-02T12:10:37.603Z,13.60
2018-12-02T12:13:06.554Z,13.80
2018-12-02T12:15:36.013Z,13.80
2018-12-02T12:18:04.870Z,13.90
2018-12-02T12:20:35.138Z,13.90
2018-12-02T12:23:03.809Z,14.00
2018-12-02T12:25:32.399Z,13.90
2018-12-02T12:28:01.384Z,13.80
2018-12-02T12:30:33.645Z,13.90
2018-12-02T12:33:02.356Z,14.00
2018-12-02T12:35:31.022Z,13.90
2018-12-02T12:37:59.731Z,13.80
2018-12-02T12:40:29.798Z,13.70
2018-12-02T12:43:15.952Z,13.60
2018-12-02T12:45:44.593Z,13.60
2018-12-02T12:48:13.260Z,13.60
2018-12-02T12:50:41.895Z,13.70
2018-12-02T12:53:10.618Z,13.70
2018-12-02T12:55:39.305Z,13.60
2018-12-02T12:58:08.550Z,13.50
2018-12-02T13:00:37.358Z,13.40
2018-12-02T13:03:06.719Z,13.30
2018-12-02T13:05:45.424Z,13.30
2018-12-02T13:08:15.214Z,13.20
2018-12-02T13:10:44.869Z,13.20
2018-12-02T13:13:13.572Z,13.20
2018-12-02T13:15:43.036Z,13.50
2018-12-02T13:18:11.820Z,13.90
2018-12-02T13:20:46.782Z,14.10
2018-12-02T13:23:15.435Z,14.10
2018-12-02T13:25:45.439Z,14.00
2018-12-02T13:28:14.982Z,13.90
2018-12-02T13:30:44.124Z,13.80
2018-12-02T13:33:12.650Z,13.80
2018-12-02T13:35:41.850Z,13.70
2018-12-02T13:38:10.873Z,13.70
2018-12-02T13:40:40.845Z,13.70
2018-12-02T13:43:12.731Z,13.70
2018-12-02T13:45:41.892Z,13.60
2018-12-02T13:48:10.586Z,13.60
2018-12-02T13:50:39.604Z,13.70
2018-12-02T13:53:08.520Z,13.70
2018-12-02T13:55:37.213Z,13.60
2018-12-02T13:58:06.683Z,13.60
2018-12-02T14:00:36.459Z,13.60
2018-12-02T14:03:09.440Z,13.60
2018-12-02T14:05:44.303Z,13.60
2018-12-02T14:08:12.853Z,13.50
2018-12-02T14:10:41.574Z,13.50
2018-12-02T14:13:27.538Z,13.40
2018-12-02T14:17:06.491Z,13.40
2018-12-02T14:19:35.471Z,13.30
2018-12-02T14:22:04.283Z,13.20
2018-12-02T14:24:33.025Z,13.20
2018-12-02T14:27:02.038Z,13.20
2018-12-02T14:29:35.828Z,13.20
2018-12-02T14:32:11.056Z,13.10
2018-12-02T14:34:40.479Z,13.10
2018-12-02T14:37:09.485Z,13.10
2018-12-02T14:39:38.108Z,13.10
2018-12-02T14:42:06.930Z,13.10
2018-12-02T14:44:35.516Z,13.10
2018-12-02T14:47:04.291Z,13.10
2018-12-02T14:49:34.125Z,13.10
2018-12-02T14:52:01.853Z,13.00
2018-12-02T14:54:30.551Z,12.90
2018-12-02T14:56:59.207Z,12.90
2018-12-02T14:59:27.896Z,12.90
2018-12-02T15:01:56.585Z,12.90
2018-12-02T15:04:25.265Z,13.00
2018-12-02T15:06:53.941Z,13.00
2018-12-02T15:09:22.673Z,13.00
2018-12-02T15:11:55.436Z,13.00
2018-12-02T15:14:24.120Z,13.00
2018-12-02T15:16:52.806Z,13.00
2018-12-02T15:19:21.582Z,13.00
2018-12-02T15:21:50.280Z,13.00
2018-12-02T15:24:19.145Z,13.00
2018-12-02T15:26:47.883Z,13.00
2018-12-02T15:29:16.522Z,13.00
2018-12-02T15:31:45.229Z,13.00
2018-12-02T15:34:14.215Z,13.00
2018-12-02T15:36:42.857Z,13.10
2018-12-02T15:39:11.553Z,13.10
2018-12-02T15:41:40.273Z,13.10
2018-12-02T15:44:08.941Z,13.10
2018-12-02T15:46:37.634Z,13.10
2018-12-02T15:49:06.268Z,13.20
2018-12-02T15:51:34.956Z,13.20
2018-12-02T15:54:03.666Z,13.20
2018-12-02T15:56:32.326Z,13.20
2018-12-02T15:59:01.465Z,13.20
2018-12-02T16:01:30.334Z,13.10
2018-12-02T16:03:59.043Z,13.10
2018-12-02T16:06:27.692Z,13.00
2018-12-02T16:08:56.408Z,13.10
2018-12-02T16:11:25.093Z,13.00
2018-12-02T16:13:53.765Z,13.00
2018-12-02T16:16:22.471Z,12.90
2018-12-02T16:18:51.536Z,12.90
2018-12-02T16:21:20.264Z,12.90
2018-12-02T16:23:48.973Z,12.90
2018-12-02T16:26:17.644Z,12.90
2018-12-02T16:28:46.266Z,13.00
2018-12-02T16:31:15.171Z,12.90
2018-12-02T16:33:44.071Z,12.90
2018-12-02T16:36:12.842Z,13.00
2018-12-02T16:38:41.528Z,13.00
2018-12-02T16:41:10.234Z,13.00
2018-12-02T16:43:38.806Z,13.00
2018-12-02T16:46:07.480Z,13.00
2018-12-02T16:48:36.180Z,13.00
2018-12-02T16:51:04.866Z,13.00
2018-12-02T16:53:33.658Z,13.00
2018-12-02T16:56:12.103Z,12.90
2018-12-02T16:58:48.718Z,12.90
2018-12-02T17:01:22.881Z,12.90
2018-12-02T17:03:53.882Z,12.90
2018-12-02T17:06:22.567Z,12.90
2018-12-02T17:08:51.475Z,12.80
2018-12-02T17:11:20.251Z,12.80
2018-12-02T17:13:48.816Z,12.80
2018-12-02T17:16:17.717Z,12.90
2018-12-02T17:18:46.376Z,12.90
2018-12-02T17:21:15.399Z,13.00
2018-12-02T17:23:44.156Z,13.00
2018-12-02T17:26:12.824Z,13.10
2018-12-02T17:28:41.427Z,13.10
2018-12-02T17:31:13.190Z,13.10
2018-12-02T17:33:42.075Z,13.10
2018-12-02T17:36:10.777Z,13.20
2018-12-02T17:38:41.937Z,13.20
2018-12-02T17:41:12.238Z,13.30
2018-12-02T17:43:41.008Z,13.30
2018-12-02T17:46:10.671Z,13.30
2018-12-02T17:48:44.390Z,13.30
2018-12-02T17:51:14.074Z,13.20
2018-12-02T17:53:43.307Z,13.10
2018-12-02T17:56:12.030Z,13.10
2018-12-02T17:58:40.720Z,13.00
2018-12-02T18:01:09.671Z,12.90
2018-12-02T18:03:39.383Z,12.80
2018-12-02T18:06:09.620Z,12.80
2018-12-02T18:08:38.502Z,12.80
2018-12-02T18:11:08.645Z,12.80
2018-12-02T18:13:38.316Z,12.80
2018-12-02T18:16:06.932Z,12.80
2018-12-02T18:18:35.615Z,12.80
2018-12-02T18:21:04.450Z,12.80
2018-12-02T18:23:33.214Z,12.80
2018-12-02T18:26:01.827Z,12.80
2018-12-02T18:28:30.560Z,12.80
2018-12-02T18:30:59.482Z,12.80
2018-12-02T18:33:28.184Z,12.80
2018-12-02T18:36:08.640Z,12.70
2018-12-02T18:38:39.131Z,12.70
2018-12-02T18:41:12.787Z,12.70
2018-12-02T18:43:41.536Z,12.70
2018-12-02T18:46:12.329Z,12.70
2018-12-02T18:48:41.039Z,12.70
2018-12-02T18:51:09.610Z,12.70
2018-12-02T18:53:38.332Z,12.80
2018-12-02T18:56:06.994Z,12.80
2018-12-02T18:58:35.767Z,12.80
2018-12-02T19:01:04.493Z,12.90
2018-12-02T19:03:33.242Z,12.90
2018-12-02T19:06:02.050Z,13.00
2018-12-02T19:08:30.675Z,13.00
2018-12-02T19:11:00.121Z,13.00
2018-12-02T19:13:28.873Z,13.10
2018-12-02T19:15:57.853Z,13.10
2018-12-02T19:18:26.552Z,13.20
2018-12-02T19:20:57.499Z,13.20
2018-12-02T19:23:28.675Z,13.20
2018-12-02T19:25:57.432Z,13.30
2018-12-02T19:28:26.129Z,13.30
2018-12-02T19:30:54.750Z,13.40
2018-12-02T19:33:24.654Z,13.40
2018-12-02T19:35:58.601Z,13.50
2018-12-02T19:38:27.479Z,13.60
2018-12-02T19:40:56.110Z,13.60
2018-12-02T19:43:24.874Z,13.60
2018-12-02T19:45:53.621Z,13.60
2018-12-02T19:48:22.290Z,13.50
2018-12-02T19:50:51.981Z,13.40
2018-12-02T19:53:20.660Z,13.40
2018-12-02T19:55:49.412Z,13.40
2018-12-02T19:58:18.249Z,13.40
2018-12-02T20:00:47.425Z,13.30
2018-12-02T20:03:17.150Z,13.30
2018-12-02T20:05:47.045Z,13.20
2018-12-02T20:08:16.432Z,13.10
2018-12-02T20:10:48.487Z,13.00
2018-12-02T20:13:18.437Z,13.00
2018-12-02T20:15:53.223Z,12.90
2018-12-02T20:18:22.036Z,12.90
2018-12-02T20:20:54.218Z,12.90
2018-12-02T20:23:29.031Z,12.90
2018-12-02T20:25:59.164Z,12.90
2018-12-02T20:28:32.566Z,13.00
2018-12-02T20:31:03.366Z,13.00
2018-12-02T20:33:31.982Z,13.00
2018-12-02T20:36:01.171Z,13.00
2018-12-02T20:38:30.329Z,13.00
2018-12-02T20:40:59.934Z,13.00
2018-12-02T20:43:28.534Z,13.00
2018-12-02T20:45:57.451Z,13.00
2018-12-02T20:48:26.267Z,13.00
2018-12-02T20:50:55.292Z,13.00
2018-12-02T20:53:24.147Z,13.00
2018-12-02T20:55:53.184Z,13.00
2018-12-02T20:58:21.978Z,13.00
2018-12-02T21:00:50.651Z,13.00
2018-12-02T21:03:22.415Z,13.00
2018-12-02T21:06:09.634Z,13.10
2018-12-02T21:08:38.438Z,13.10
2018-12-02T21:11:07.075Z,13.00
2018-12-02T21:13:35.756Z,13.00
2018-12-02T21:16:05.005Z,13.00
2018-12-02T21:18:33.663Z,13.00
2018-12-02T21:21:02.315Z,13.00
2018-12-02T21:23:31.227Z,13.00
2018-12-02T21:25:59.932Z,13.10
2018-12-02T21:28:28.536Z,13.10
2018-12-02T21:30:57.210Z,13.10
2018-12-02T21:33:25.811Z,13.10
2018-12-02T21:35:55.138Z,13.20
2018-12-02T21:38:23.799Z,13.20
2018-12-02T21:40:53.450Z,13.20
2018-12-02T21:43:23.016Z,13.20
2018-12-02T21:45:51.601Z,13.20
2018-12-02T21:48:22.726Z,13.20
2018-12-02T21:50:54.242Z,13.30
2018-12-02T21:53:22.951Z,13.30
2018-12-02T21:55:51.516Z,13.40
2018-12-02T21:58:20.100Z,13.40
2018-12-02T22:00:53.955Z,13.40
2018-12-02T22:03:22.661Z,13.40
2018-12-02T22:05:51.337Z,13.50
2018-12-02T22:08:20.062Z,13.50
2018-12-02T22:10:49.130Z,13.60
2018-12-02T22:13:17.788Z,13.50
2018-12-02T22:15:46.482Z,13.60
2018-12-02T22:18:15.091Z,13.60
2018-12-02T22:20:43.784Z,13.60
2018-12-02T22:23:12.469Z,13.60
2018-12-02T22:25:41.111Z,13.60
2018-12-02T22:28:10.123Z,13.60
2018-12-02T22:30:38.992Z,13.60
2018-12-02T22:33:08.925Z,13.60
2018-12-02T22:35:37.588Z,13.60
2018-12-02T22:38:06.900Z,13.50
2018-12-02T22:40:35.552Z,13.50
2018-12-02T22:43:04.434Z,13.40
2018-12-02T22:45:33.037Z,13.40
2018-12-02T22:48:01.795Z,13.40
2018-12-02T22:50:30.753Z,13.40
2018-12-02T22:53:00.379Z,13.40
2018-12-02T22:55:29.142Z,13.40
2018-12-02T22:57:57.846Z,13.40
2018-12-02T23:00:36.159Z,13.30
2018-12-02T23:03:14.035Z,13.30
2018-12-02T23:05:43.993Z,13.30
2018-12-02T23:08:13.103Z,13.30
2018-12-02T23:10:42.177Z,13.20
2018-12-02T23:13:11.384Z,13.20
2018-12-02T23:15:41.464Z,13.20
2018-12-02T23:18:11.723Z,13.20
2018-12-02T23:20:40.377Z,13.20
2018-12-02T23:23:09.033Z,13.20
2018-12-02T23:25:37.835Z,13.10
2018-12-02T23:28:07.664Z,13.10
2018-12-02T23:30:36.676Z,13.10
2018-12-02T23:33:05.864Z,13.00
2018-12-02T23:35:34.482Z,13.00
2018-12-02T23:38:03.079Z,13.00
2018-12-02T23:40:31.846Z,13.00
2018-12-02T23:43:00.510Z,12.90
2018-12-02T23:45:29.163Z,12.90
2018-12-02T23:47:58.134Z,12.80
2018-12-02T23:50:26.749Z,12.80
2018-12-02T23:52:55.423Z,12.80
2018-12-02T23:55:24.215Z,12.80
2018-12-02T23:57:52.958Z,12.80
